sensor_id;sensor_type;location;lat;lon;timestamp;P1;durP1;ratioP1;P2;durP2;ratioP2
37309;SDS011;23195;47.744;7.358;2023-11-19T07:23:37;2.67;;;1.60;;
37309;SDS011;23195;47.744;7.358;2023-11-19T07:26:06;3.40;;;1.67;;
37309;SDS011;23195;47.744;7.358;2023-11-19T07:28:35;7.93;;;1.80;;
37309;SDS011;23195;47.744;7.358;2023-11-19T07:31:00;3.87;;;1.90;;
37309;SDS011;23195;47.744;7.358;2023-11-19T07:33:27;2.43;;;1.83;;
37309;SDS011;23195;47.744;7.358;2023-11-19T07:35:53;3.50;;;1.80;;
37309;SDS011;23195;47.744;7.358;2023-11-19T07:38:18;2.20;;;2.00;;
37309;SDS011;23195;47.744;7.358;2023-11-19T07:40:44;3.47;;;1.93;;
37309;SDS011;23195;47.744;7.358;2023-11-19T07:43:10;3.80;;;2.20;;
37309;SDS011;23195;47.744;7.358;2023-11-19T07:45:36;2.20;;;2.00;;
37309;SDS011;23195;47.744;7.358;2023-11-19T07:48:02;4.20;;;2.30;;
37309;SDS011;23195;47.744;7.358;2023-11-19T07:50:57;7.40;;;2.80;;
37309;SDS011;23195;47.744;7.358;2023-11-19T07:54:24;6.07;;;3.07;;
37309;SDS011;23195;47.744;7.358;2023-11-19T07:56:50;3.93;;;2.73;;
37309;SDS011;23195;47.744;7.358;2023-11-19T07:59:16;4.50;;;2.70;;
37309;SDS011;23195;47.744;7.358;2023-11-19T08:01:42;4.83;;;2.63;;
37309;SDS011;23195;47.744;7.358;2023-11-19T08:04:08;6.87;;;2.80;;
37309;SDS011;23195;47.744;7.358;2023-11-19T08:06:34;4.60;;;2.67;;
37309;SDS011;23195;47.744;7.358;2023-11-19T08:09:00;3.40;;;2.40;;
37309;SDS011;23195;47.744;7.358;2023-11-19T08:11:26;5.23;;;2.30;;
37309;SDS011;23195;47.744;7.358;2023-11-19T08:13:52;3.57;;;2.23;;
37309;SDS011;23195;47.744;7.358;2023-11-19T08:16:18;3.73;;;2.27;;
37309;SDS011;23195;47.744;7.358;2023-11-19T08:18:46;2.80;;;2.30;;
37309;SDS011;23195;47.744;7.358;2023-11-19T08:21:11;4.67;;;2.57;;
37309;SDS011;23195;47.744;7.358;2023-11-19T08:23:48;4.70;;;2.20;;
37309;SDS011;23195;47.744;7.358;2023-11-19T08:26:14;5.20;;;2.40;;
37309;SDS011;23195;47.744;7.358;2023-11-19T08:28:40;4.83;;;2.33;;
37309;SDS011;23195;47.744;7.358;2023-11-19T08:31:09;6.07;;;2.03;;
37309;SDS011;23195;47.744;7.358;2023-11-19T08:33:38;5.17;;;2.07;;
37309;SDS011;23195;47.744;7.358;2023-11-19T08:36:04;2.20;;;1.93;;
37309;SDS011;23195;47.744;7.358;2023-11-19T08:38:33;3.53;;;2.20;;
37309;SDS011;23195;47.744;7.358;2023-11-19T08:41:01;7.47;;;2.10;;
37309;SDS011;23195;47.744;7.358;2023-11-19T08:43:34;2.23;;;2.00;;
37309;SDS011;23195;47.744;7.358;2023-11-19T08:46:03;2.33;;;1.70;;
37309;SDS011;23195;47.744;7.358;2023-11-19T08:48:31;3.60;;;2.03;;
37309;SDS011;23195;47.744;7.358;2023-11-19T08:51:25;5.40;;;2.20;;
37309;SDS011;23195;47.744;7.358;2023-11-19T08:53:51;2.33;;;2.10;;
37309;SDS011;23195;47.744;7.358;2023-11-19T08:56:19;4.13;;;1.73;;
37309;SDS011;23195;47.744;7.358;2023-11-19T08:59:01;2.23;;;1.90;;
37309;SDS011;23195;47.744;7.358;2023-11-19T09:01:29;2.83;;;1.70;;
37309;SDS011;23195;47.744;7.358;2023-11-19T09:04:01;3.90;;;1.70;;
37309;SDS011;23195;47.744;7.358;2023-11-19T09:06:27;5.53;;;1.90;;
37309;SDS011;23195;47.744;7.358;2023-11-19T09:08:58;3.83;;;2.13;;
37309;SDS011;23195;47.744;7.358;2023-11-19T09:11:36;4.00;;;1.83;;
37309;SDS011;23195;47.744;7.358;2023-11-19T09:14:41;2.67;;;2.23;;
37309;SDS011;23195;47.744;7.358;2023-11-19T09:17:19;3.67;;;2.00;;
37309;SDS011;23195;47.744;7.358;2023-11-19T09:19:45;4.37;;;2.30;;
37309;SDS011;23195;47.744;7.358;2023-11-19T09:22:14;3.67;;;2.60;;
37309;SDS011;23195;47.744;7.358;2023-11-19T09:24:43;4.20;;;2.10;;
37309;SDS011;23195;47.744;7.358;2023-11-19T09:27:13;4.77;;;1.90;;
37309;SDS011;23195;47.744;7.358;2023-11-19T09:29:42;3.20;;;1.97;;
37309;SDS011;23195;47.744;7.358;2023-11-19T09:32:13;3.77;;;1.90;;
37309;SDS011;23195;47.744;7.358;2023-11-19T09:34:39;1.83;;;1.67;;
37309;SDS011;23195;47.744;7.358;2023-11-19T09:37:15;3.47;;;1.80;;
37309;SDS011;23195;47.744;7.358;2023-11-19T09:39:41;4.53;;;2.23;;
37309;SDS011;23195;47.744;7.358;2023-11-19T09:42:13;2.30;;;2.00;;
37309;SDS011;23195;47.744;7.358;2023-11-19T09:44:39;3.33;;;1.70;;
37309;SDS011;23195;47.744;7.358;2023-11-19T09:47:11;2.57;;;2.10;;
37309;SDS011;23195;47.744;7.358;2023-11-19T09:49:39;3.20;;;1.93;;
37309;SDS011;23195;47.744;7.358;2023-11-19T09:52:11;2.40;;;1.90;;
37309;SDS011;23195;47.744;7.358;2023-11-19T09:54:37;3.70;;;1.87;;
37309;SDS011;23195;47.744;7.358;2023-11-19T09:57:15;1.80;;;1.70;;
37309;SDS011;23195;47.744;7.358;2023-11-19T09:59:42;2.00;;;1.60;;
37309;SDS011;23195;47.744;7.358;2023-11-19T10:02:19;3.90;;;2.20;;
37309;SDS011;23195;47.744;7.358;2023-11-19T10:04:46;4.07;;;1.93;;
37309;SDS011;23195;47.744;7.358;2023-11-19T10:07:15;2.53;;;1.80;;
37309;SDS011;23195;47.744;7.358;2023-11-19T10:09:50;3.87;;;1.73;;
37309;SDS011;23195;47.744;7.358;2023-11-19T10:12:21;4.03;;;1.77;;
37309;SDS011;23195;47.744;7.358;2023-11-19T10:14:56;2.67;;;2.40;;
37309;SDS011;23195;47.744;7.358;2023-11-19T10:17:32;2.33;;;2.13;;
37309;SDS011;23195;47.744;7.358;2023-11-19T10:20:00;2.13;;;1.83;;
37309;SDS011;23195;47.744;7.358;2023-11-19T10:22:29;1.97;;;1.80;;
37309;SDS011;23195;47.744;7.358;2023-11-19T10:24:58;4.87;;;2.00;;
37309;SDS011;23195;47.744;7.358;2023-11-19T10:27:24;2.93;;;1.60;;
37309;SDS011;23195;47.744;7.358;2023-11-19T10:29:55;4.03;;;1.63;;
37309;SDS011;23195;47.744;7.358;2023-11-19T10:32:28;2.23;;;1.60;;
37309;SDS011;23195;47.744;7.358;2023-11-19T10:35:06;3.87;;;1.63;;
37309;SDS011;23195;47.744;7.358;2023-11-19T10:37:32;2.47;;;2.13;;
37309;SDS011;23195;47.744;7.358;2023-11-19T10:40:00;4.43;;;1.90;;
37309;SDS011;23195;47.744;7.358;2023-11-19T10:42:26;2.87;;;2.27;;
37309;SDS011;23195;47.744;7.358;2023-11-19T10:44:52;2.00;;;1.80;;
37309;SDS011;23195;47.744;7.358;2023-11-19T10:47:21;2.53;;;1.70;;
37309;SDS011;23195;47.744;7.358;2023-11-19T10:49:48;3.23;;;2.40;;
37309;SDS011;23195;47.744;7.358;2023-11-19T10:52:18;5.17;;;2.17;;
37309;SDS011;23195;47.744;7.358;2023-11-19T10:54:50;3.90;;;2.00;;
37309;SDS011;23195;47.744;7.358;2023-11-19T10:57:25;3.40;;;1.80;;
37309;SDS011;23195;47.744;7.358;2023-11-19T10:59:55;3.27;;;2.37;;
37309;SDS011;23195;47.744;7.358;2023-11-19T11:02:33;4.07;;;2.03;;
37309;SDS011;23195;47.744;7.358;2023-11-19T11:05:06;4.77;;;2.27;;
37309;SDS011;23195;47.744;7.358;2023-11-19T11:07:36;4.37;;;2.60;;
37309;SDS011;23195;47.744;7.358;2023-11-19T11:10:03;6.80;;;2.63;;
37309;SDS011;23195;47.744;7.358;2023-11-19T11:12:32;7.63;;;2.77;;
37309;SDS011;23195;47.744;7.358;2023-11-19T11:15:02;7.90;;;3.37;;
37309;SDS011;23195;47.744;7.358;2023-11-19T11:17:30;6.57;;;3.00;;
37309;SDS011;23195;47.744;7.358;2023-11-19T11:19:58;4.60;;;3.00;;
37309;SDS011;23195;47.744;7.358;2023-11-19T11:22:24;5.60;;;2.67;;
37309;SDS011;23195;47.744;7.358;2023-11-19T11:28:20;4.23;;;2.47;;
37309;SDS011;23195;47.744;7.358;2023-11-19T11:31:03;4.00;;;2.70;;
37309;SDS011;23195;47.744;7.358;2023-11-19T11:33:41;7.30;;;2.80;;
37309;SDS011;23195;47.744;7.358;2023-11-19T11:36:28;4.67;;;2.47;;
37309;SDS011;23195;47.744;7.358;2023-11-19T11:39:06;5.63;;;2.30;;
37309;SDS011;23195;47.744;7.358;2023-11-19T11:41:33;4.07;;;2.20;;
37309;SDS011;23195;47.744;7.358;2023-11-19T11:43:59;4.27;;;2.20;;
37309;SDS011;23195;47.744;7.358;2023-11-19T11:49:04;3.83;;;2.00;;
37309;SDS011;23195;47.744;7.358;2023-11-19T11:59:47;3.63;;;2.23;;
37309;SDS011;23195;47.744;7.358;2023-11-19T12:05:29;4.17;;;2.30;;
37309;SDS011;23195;47.744;7.358;2023-11-19T12:07:57;5.03;;;2.00;;
37309;SDS011;23195;47.744;7.358;2023-11-19T12:10:32;6.10;;;2.20;;
37309;SDS011;23195;47.744;7.358;2023-11-19T12:13:03;5.57;;;2.30;;
37309;SDS011;23195;47.744;7.358;2023-11-19T12:15:33;2.77;;;2.03;;
37309;SDS011;23195;47.744;7.358;2023-11-19T12:21:06;3.40;;;1.73;;
37309;SDS011;23195;47.744;7.358;2023-11-19T12:23:34;3.07;;;1.90;;
37309;SDS011;23195;47.744;7.358;2023-11-19T12:26:00;4.90;;;1.80;;
37309;SDS011;23195;47.744;7.358;2023-11-19T12:28:26;2.37;;;1.93;;
37309;SDS011;23195;47.744;7.358;2023-11-19T12:30:53;3.73;;;2.20;;
37309;SDS011;23195;47.744;7.358;2023-11-19T12:33:19;2.07;;;1.50;;
37309;SDS011;23195;47.744;7.358;2023-11-19T12:35:48;3.70;;;2.17;;
37309;SDS011;23195;47.744;7.358;2023-11-19T12:38:22;3.30;;;2.20;;
37309;SDS011;23195;47.744;7.358;2023-11-19T12:41:02;4.93;;;2.50;;
37309;SDS011;23195;47.744;7.358;2023-11-19T12:43:29;2.93;;;2.03;;
37309;SDS011;23195;47.744;7.358;2023-11-19T12:46:16;6.33;;;2.20;;
37309;SDS011;23195;47.744;7.358;2023-11-19T12:48:50;4.10;;;2.10;;
37309;SDS011;23195;47.744;7.358;2023-11-19T12:51:33;5.77;;;3.40;;
37309;SDS011;23195;47.744;7.358;2023-11-19T12:57:20;4.00;;;2.10;;
37309;SDS011;23195;47.744;7.358;2023-11-19T13:00:42;2.13;;;1.70;;
37309;SDS011;23195;47.744;7.358;2023-11-19T13:03:30;3.50;;;2.20;;
37309;SDS011;23195;47.744;7.358;2023-11-19T13:06:03;7.53;;;2.83;;
37309;SDS011;23195;47.744;7.358;2023-11-19T13:08:36;3.50;;;1.90;;
37309;SDS011;23195;47.744;7.358;2023-11-19T13:11:14;2.53;;;1.80;;
37309;SDS011;23195;47.744;7.358;2023-11-19T13:16:25;3.13;;;1.90;;
37309;SDS011;23195;47.744;7.358;2023-11-19T13:18:52;3.00;;;2.17;;
37309;SDS011;23195;47.744;7.358;2023-11-19T13:24:47;3.97;;;2.10;;
37309;SDS011;23195;47.744;7.358;2023-11-19T13:27:16;5.33;;;2.63;;
37309;SDS011;23195;47.744;7.358;2023-11-19T13:29:42;6.07;;;2.20;;
37309;SDS011;23195;47.744;7.358;2023-11-19T13:32:08;3.10;;;2.23;;
37309;SDS011;23195;47.744;7.358;2023-11-19T13:34:34;6.27;;;2.37;;
37309;SDS011;23195;47.744;7.358;2023-11-19T13:37:01;7.13;;;2.90;;
37309;SDS011;23195;47.744;7.358;2023-11-19T13:39:26;4.43;;;2.03;;
37309;SDS011;23195;47.744;7.358;2023-11-19T13:41:58;4.00;;;2.07;;
37309;SDS011;23195;47.744;7.358;2023-11-19T13:44:24;3.93;;;2.00;;
37309;SDS011;23195;47.744;7.358;2023-11-19T13:46:50;3.23;;;1.70;;
37309;SDS011;23195;47.744;7.358;2023-11-19T13:49:16;5.83;;;2.50;;
37309;SDS011;23195;47.744;7.358;2023-11-19T13:51:42;7.13;;;4.13;;
37309;SDS011;23195;47.744;7.358;2023-11-19T13:54:08;7.43;;;3.90;;
37309;SDS011;23195;47.744;7.358;2023-11-19T13:56:37;7.73;;;3.40;;
37309;SDS011;23195;47.744;7.358;2023-11-19T13:59:02;3.90;;;2.10;;
37309;SDS011;23195;47.744;7.358;2023-11-19T14:01:28;2.97;;;2.30;;
37309;SDS011;23195;47.744;7.358;2023-11-19T14:03:56;4.67;;;2.00;;
37309;SDS011;23195;47.744;7.358;2023-11-19T14:06:22;3.50;;;1.80;;
37309;SDS011;23195;47.744;7.358;2023-11-19T14:08:57;2.97;;;1.90;;
37309;SDS011;23195;47.744;7.358;2023-11-19T14:11:25;3.83;;;2.30;;
37309;SDS011;23195;47.744;7.358;2023-11-19T14:13:51;6.07;;;1.90;;
37309;SDS011;23195;47.744;7.358;2023-11-19T14:16:26;5.93;;;1.80;;
37309;SDS011;23195;47.744;7.358;2023-11-19T14:18:52;5.90;;;2.50;;
37309;SDS011;23195;47.744;7.358;2023-11-19T14:21:18;8.93;;;3.50;;
37309;SDS011;23195;47.744;7.358;2023-11-19T14:23:47;4.80;;;3.20;;
37309;SDS011;23195;47.744;7.358;2023-11-19T14:26:12;5.70;;;2.77;;
37309;SDS011;23195;47.744;7.358;2023-11-19T14:28:39;3.67;;;2.40;;
37309;SDS011;23195;47.744;7.358;2023-11-19T14:31:04;4.23;;;1.90;;
37309;SDS011;23195;47.744;7.358;2023-11-19T14:33:33;5.80;;;2.30;;
37309;SDS011;23195;47.744;7.358;2023-11-19T14:36:03;5.60;;;2.20;;
37309;SDS011;23195;47.744;7.358;2023-11-19T14:38:31;6.20;;;2.50;;
37309;SDS011;23195;47.744;7.358;2023-11-19T14:40:57;5.83;;;2.13;;
37309;SDS011;23195;47.744;7.358;2023-11-19T14:43:26;4.30;;;2.47;;
37309;SDS011;23195;47.744;7.358;2023-11-19T14:45:55;4.67;;;2.60;;
37309;SDS011;23195;47.744;7.358;2023-11-19T14:48:21;10.60;;;2.60;;
37309;SDS011;23195;47.744;7.358;2023-11-19T14:50:53;5.33;;;2.50;;
37309;SDS011;23195;47.744;7.358;2023-11-19T14:53:54;4.13;;;3.47;;
37309;SDS011;23195;47.744;7.358;2023-11-19T14:56:20;5.40;;;2.80;;
37309;SDS011;23195;47.744;7.358;2023-11-19T14:58:46;3.20;;;2.63;;
37309;SDS011;23195;47.744;7.358;2023-11-19T15:01:24;5.23;;;3.17;;
37309;SDS011;23195;47.744;7.358;2023-11-19T15:03:50;3.23;;;2.40;;
37309;SDS011;23195;47.744;7.358;2023-11-19T15:06:16;3.93;;;3.00;;
37309;SDS011;23195;47.744;7.358;2023-11-19T15:08:42;5.13;;;3.17;;
37309;SDS011;23195;47.744;7.358;2023-11-19T15:11:09;5.77;;;2.60;;
37309;SDS011;23195;47.744;7.358;2023-11-19T15:13:36;4.30;;;2.80;;
37309;SDS011;23195;47.744;7.358;2023-11-19T15:16:05;5.03;;;2.47;;
37309;SDS011;23195;47.744;7.358;2023-11-19T15:18:32;4.00;;;2.87;;
37309;SDS011;23195;47.744;7.358;2023-11-19T15:20:57;4.10;;;2.47;;
37309;SDS011;23195;47.744;7.358;2023-11-19T15:23:29;7.43;;;2.60;;
37309;SDS011;23195;47.744;7.358;2023-11-19T15:25:55;5.03;;;2.40;;
37309;SDS011;23195;47.744;7.358;2023-11-19T15:28:21;4.77;;;2.40;;
37309;SDS011;23195;47.744;7.358;2023-11-19T15:30:48;12.50;;;3.40;;
37309;SDS011;23195;47.744;7.358;2023-11-19T15:33:14;4.53;;;2.90;;
37309;SDS011;23195;47.744;7.358;2023-11-19T15:35:40;4.17;;;2.40;;
37309;SDS011;23195;47.744;7.358;2023-11-19T15:38:06;6.50;;;2.90;;
37309;SDS011;23195;47.744;7.358;2023-11-19T15:40:37;7.67;;;2.83;;
37309;SDS011;23195;47.744;7.358;2023-11-19T15:43:04;4.57;;;2.60;;
37309;SDS011;23195;47.744;7.358;2023-11-19T15:45:34;3.60;;;2.20;;
37309;SDS011;23195;47.744;7.358;2023-11-19T15:48:06;4.17;;;2.30;;
37309;SDS011;23195;47.744;7.358;2023-11-19T15:50:32;3.13;;;2.30;;
37309;SDS011;23195;47.744;7.358;2023-11-19T15:53:01;4.60;;;2.60;;
37309;SDS011;23195;47.744;7.358;2023-11-19T15:55:27;3.57;;;2.03;;
37309;SDS011;23195;47.744;7.358;2023-11-19T15:58:19;4.10;;;2.70;;
37309;SDS011;23195;47.744;7.358;2023-11-19T16:00:47;4.13;;;2.80;;
37309;SDS011;23195;47.744;7.358;2023-11-19T16:03:13;3.63;;;2.63;;
37309;SDS011;23195;47.744;7.358;2023-11-19T16:05:44;3.83;;;2.53;;
37309;SDS011;23195;47.744;7.358;2023-11-19T16:08:10;3.37;;;2.60;;
37309;SDS011;23195;47.744;7.358;2023-11-19T16:10:39;4.03;;;2.70;;
37309;SDS011;23195;47.744;7.358;2023-11-19T16:13:18;3.07;;;2.47;;
37309;SDS011;23195;47.744;7.358;2023-11-19T16:15:44;4.03;;;2.43;;
37309;SDS011;23195;47.744;7.358;2023-11-19T16:21:19;3.50;;;2.50;;
37309;SDS011;23195;47.744;7.358;2023-11-19T16:23:44;3.67;;;2.10;;
37309;SDS011;23195;47.744;7.358;2023-11-19T16:26:15;3.70;;;2.60;;
37309;SDS011;23195;47.744;7.358;2023-11-19T16:28:49;2.93;;;2.27;;
37309;SDS011;23195;47.744;7.358;2023-11-19T16:31:24;2.50;;;2.30;;
37309;SDS011;23195;47.744;7.358;2023-11-19T16:33:52;3.67;;;2.77;;
37309;SDS011;23195;47.744;7.358;2023-11-19T16:36:18;5.17;;;3.27;;
37309;SDS011;23195;47.744;7.358;2023-11-19T16:38:47;8.37;;;3.30;;
37309;SDS011;23195;47.744;7.358;2023-11-19T16:41:22;6.67;;;4.17;;
37309;SDS011;23195;47.744;7.358;2023-11-19T16:43:51;7.87;;;5.60;;
37309;SDS011;23195;47.744;7.358;2023-11-19T16:46:19;8.70;;;5.90;;
37309;SDS011;23195;47.744;7.358;2023-11-19T16:48:56;8.00;;;4.10;;
37309;SDS011;23195;47.744;7.358;2023-11-19T16:51:33;8.60;;;4.77;;
37309;SDS011;23195;47.744;7.358;2023-11-19T16:54:06;7.27;;;3.10;;
37309;SDS011;23195;47.744;7.358;2023-11-19T16:56:40;3.73;;;2.83;;
37309;SDS011;23195;47.744;7.358;2023-11-19T16:59:19;4.77;;;3.13;;
37309;SDS011;23195;47.744;7.358;2023-11-19T17:01:45;5.27;;;2.30;;
37309;SDS011;23195;47.744;7.358;2023-11-19T17:04:20;4.60;;;2.50;;
37309;SDS011;23195;47.744;7.358;2023-11-19T17:07:05;4.80;;;2.73;;
37309;SDS011;23195;47.744;7.358;2023-11-19T17:09:51;3.93;;;2.67;;
37309;SDS011;23195;47.744;7.358;2023-11-19T17:12:34;4.57;;;2.57;;
37309;SDS011;23195;47.744;7.358;2023-11-19T17:15:13;3.93;;;2.60;;
37309;SDS011;23195;47.744;7.358;2023-11-19T17:17:58;4.37;;;2.20;;
37309;SDS011;23195;47.744;7.358;2023-11-19T17:23:42;4.00;;;2.40;;
37309;SDS011;23195;47.744;7.358;2023-11-19T17:29:18;8.47;;;3.43;;
37309;SDS011;23195;47.744;7.358;2023-11-19T17:31:47;4.40;;;2.50;;
37309;SDS011;23195;47.744;7.358;2023-11-19T17:34:14;5.53;;;2.60;;
37309;SDS011;23195;47.744;7.358;2023-11-19T17:36:53;3.20;;;2.53;;
37309;SDS011;23195;47.744;7.358;2023-11-19T17:39:29;4.70;;;2.57;;
37309;SDS011;23195;47.744;7.358;2023-11-19T17:42:10;4.67;;;2.80;;
37309;SDS011;23195;47.744;7.358;2023-11-19T17:44:42;3.23;;;2.30;;
37309;SDS011;23195;47.744;7.358;2023-11-19T17:47:25;8.00;;;3.57;;
37309;SDS011;23195;47.744;7.358;2023-11-19T17:50:02;4.40;;;2.60;;
37309;SDS011;23195;47.744;7.358;2023-11-19T17:52:36;5.10;;;3.30;;
37309;SDS011;23195;47.744;7.358;2023-11-19T17:55:02;5.10;;;2.90;;
37309;SDS011;23195;47.744;7.358;2023-11-19T17:57:33;6.30;;;3.30;;
37309;SDS011;23195;47.744;7.358;2023-11-19T18:00:18;4.23;;;3.10;;
37309;SDS011;23195;47.744;7.358;2023-11-19T18:02:47;5.57;;;2.80;;
37309;SDS011;23195;47.744;7.358;2023-11-19T18:05:16;3.97;;;2.73;;
37309;SDS011;23195;47.744;7.358;2023-11-19T18:08:00;4.97;;;2.97;;
37309;SDS011;23195;47.744;7.358;2023-11-19T18:10:26;5.30;;;2.10;;
37309;SDS011;23195;47.744;7.358;2023-11-19T18:12:57;4.07;;;2.33;;
37309;SDS011;23195;47.744;7.358;2023-11-19T18:16:03;4.73;;;2.43;;
37309;SDS011;23195;47.744;7.358;2023-11-19T18:18:48;5.10;;;2.00;;
37309;SDS011;23195;47.744;7.358;2023-11-19T18:43:55;3.60;;;2.30;;
37309;SDS011;23195;47.744;7.358;2023-11-19T18:46:28;5.57;;;2.47;;
37309;SDS011;23195;47.744;7.358;2023-11-19T18:55:17;3.83;;;2.13;;
37309;SDS011;23195;47.744;7.358;2023-11-19T18:57:54;4.03;;;2.30;;
37309;SDS011;23195;47.744;7.358;2023-11-19T19:00:34;6.53;;;3.10;;
37309;SDS011;23195;47.744;7.358;2023-11-19T19:09:32;5.57;;;2.70;;
37309;SDS011;23195;47.744;7.358;2023-11-19T19:12:08;2.40;;;2.03;;
37309;SDS011;23195;47.744;7.358;2023-11-19T19:15:10;2.30;;;1.70;;
37309;SDS011;23195;47.744;7.358;2023-11-19T19:20:55;2.77;;;1.43;;
37309;SDS011;23195;47.744;7.358;2023-11-19T19:23:33;1.70;;;1.60;;
37309;SDS011;23195;47.744;7.358;2023-11-19T19:26:41;2.90;;;1.90;;
37309;SDS011;23195;47.744;7.358;2023-11-19T19:29:14;3.50;;;1.90;;
37309;SDS011;23195;47.744;7.358;2023-11-19T19:32:10;3.20;;;2.20;;
37309;SDS011;23195;47.744;7.358;2023-11-19T19:34:39;2.43;;;1.77;;
37309;SDS011;23195;47.744;7.358;2023-11-19T19:37:32;2.73;;;1.73;;
37309;SDS011;23195;47.744;7.358;2023-11-19T19:40:07;1.80;;;1.57;;
37309;SDS011;23195;47.744;7.358;2023-11-19T19:42:40;2.77;;;1.40;;
37309;SDS011;23195;47.744;7.358;2023-11-19T19:45:16;6.83;;;1.70;;
37309;SDS011;23195;47.744;7.358;2023-11-19T19:47:45;3.10;;;1.50;;
37309;SDS011;23195;47.744;7.358;2023-11-19T19:50:14;2.47;;;1.70;;
37309;SDS011;23195;47.744;7.358;2023-11-19T19:53:10;3.43;;;1.97;;
37309;SDS011;23195;47.744;7.358;2023-11-19T19:55:39;5.40;;;2.43;;
37309;SDS011;23195;47.744;7.358;2023-11-19T19:58:10;5.03;;;2.10;;
37309;SDS011;23195;47.744;7.358;2023-11-19T20:00:56;3.63;;;2.20;;
37309;SDS011;23195;47.744;7.358;2023-11-19T20:06:05;4.03;;;2.57;;
37309;SDS011;23195;47.744;7.358;2023-11-19T20:08:46;3.60;;;2.40;;
37309;SDS011;23195;47.744;7.358;2023-11-19T20:11:24;5.47;;;2.73;;
37309;SDS011;23195;47.744;7.358;2023-11-19T20:14:00;5.00;;;2.20;;
37309;SDS011;23195;47.744;7.358;2023-11-19T20:16:27;4.20;;;2.40;;
37309;SDS011;23195;47.744;7.358;2023-11-19T20:18:58;3.40;;;1.70;;
37309;SDS011;23195;47.744;7.358;2023-11-19T20:21:24;4.57;;;1.80;;
37309;SDS011;23195;47.744;7.358;2023-11-19T20:24:16;4.33;;;1.87;;
37309;SDS011;23195;47.744;7.358;2023-11-19T20:27:05;4.63;;;2.20;;
37309;SDS011;23195;47.744;7.358;2023-11-19T20:29:48;4.67;;;1.83;;
37309;SDS011;23195;47.744;7.358;2023-11-19T20:32:18;6.87;;;2.10;;
37309;SDS011;23195;47.744;7.358;2023-11-19T20:34:53;5.07;;;2.50;;
37309;SDS011;23195;47.744;7.358;2023-11-19T20:37:29;4.13;;;2.00;;
37309;SDS011;23195;47.744;7.358;2023-11-19T20:40:10;3.70;;;2.03;;
37309;SDS011;23195;47.744;7.358;2023-11-19T20:42:40;5.17;;;2.10;;
37309;SDS011;23195;47.744;7.358;2023-11-19T20:45:18;6.03;;;2.23;;
37309;SDS011;23195;47.744;7.358;2023-11-19T20:47:57;2.67;;;1.90;;
37309;SDS011;23195;47.744;7.358;2023-11-19T20:50:35;5.17;;;2.30;;
37309;SDS011;23195;47.744;7.358;2023-11-19T20:53:03;6.07;;;2.20;;
37309;SDS011;23195;47.744;7.358;2023-11-19T20:55:32;3.23;;;1.67;;
37309;SDS011;23195;47.744;7.358;2023-11-19T20:57:58;3.43;;;2.20;;
37309;SDS011;23195;47.744;7.358;2023-11-19T21:00:38;2.50;;;1.50;;
37309;SDS011;23195;47.744;7.358;2023-11-19T21:03:07;3.57;;;1.80;;
37309;SDS011;23195;47.744;7.358;2023-11-19T21:05:43;4.33;;;2.20;;
37309;SDS011;23195;47.744;7.358;2023-11-19T21:08:32;3.57;;;1.80;;
37309;SDS011;23195;47.744;7.358;2023-11-19T21:11:00;2.90;;;1.97;;
37309;SDS011;23195;47.744;7.358;2023-11-19T21:13:35;6.17;;;2.10;;
37309;SDS011;23195;47.744;7.358;2023-11-19T21:16:04;3.27;;;1.90;;
37309;SDS011;23195;47.744;7.358;2023-11-19T21:18:39;7.50;;;2.50;;
37309;SDS011;23195;47.744;7.358;2023-11-19T21:21:05;5.37;;;2.70;;
37309;SDS011;23195;47.744;7.358;2023-11-19T21:23:59;9.83;;;4.27;;
37309;SDS011;23195;47.744;7.358;2023-11-19T21:26:36;5.70;;;2.80;;
37309;SDS011;23195;47.744;7.358;2023-11-19T21:29:20;8.60;;;3.30;;
37309;SDS011;23195;47.744;7.358;2023-11-19T21:31:49;4.13;;;2.30;;
37309;SDS011;23195;47.744;7.358;2023-11-19T21:34:35;5.33;;;2.33;;
37309;SDS011;23195;47.744;7.358;2023-11-19T21:37:03;3.57;;;2.10;;
37309;SDS011;23195;47.744;7.358;2023-11-19T21:39:41;6.90;;;2.43;;
37309;SDS011;23195;47.744;7.358;2023-11-19T21:42:08;5.93;;;3.40;;
37309;SDS011;23195;47.744;7.358;2023-11-19T21:44:34;10.53;;;4.70;;
37309;SDS011;23195;47.744;7.358;2023-11-19T21:53:21;4.60;;;2.33;;
37309;SDS011;23195;47.744;7.358;2023-11-19T21:56:23;6.27;;;2.77;;
37309;SDS011;23195;47.744;7.358;2023-11-19T21:59:09;6.63;;;3.40;;
37309;SDS011;23195;47.744;7.358;2023-11-19T22:01:37;3.90;;;2.80;;
37309;SDS011;23195;47.744;7.358;2023-11-19T22:04:36;3.73;;;2.63;;
37309;SDS011;23195;47.744;7.358;2023-11-19T22:07:20;5.50;;;2.50;;
37309;SDS011;23195;47.744;7.358;2023-11-19T22:10:11;7.43;;;2.10;;
37309;SDS011;23195;47.744;7.358;2023-11-19T22:12:42;5.93;;;2.67;;
37309;SDS011;23195;47.744;7.358;2023-11-19T22:15:23;5.13;;;2.53;;
37309;SDS011;23195;47.744;7.358;2023-11-19T22:17:49;8.93;;;2.33;;
37309;SDS011;23195;47.744;7.358;2023-11-19T22:20:27;5.33;;;2.97;;
37309;SDS011;23195;47.744;7.358;2023-11-19T22:23:08;6.80;;;2.23;;
37309;SDS011;23195;47.744;7.358;2023-11-19T22:32:29;4.13;;;1.77;;
37309;SDS011;23195;47.744;7.358;2023-11-19T22:35:08;5.50;;;1.73;;
37309;SDS011;23195;47.744;7.358;2023-11-19T22:40:41;4.63;;;2.13;;
37309;SDS011;23195;47.744;7.358;2023-11-19T22:43:22;2.70;;;2.00;;
37309;SDS011;23195;47.744;7.358;2023-11-19T22:45:58;4.40;;;1.53;;
37309;SDS011;23195;47.744;7.358;2023-11-19T22:48:37;4.83;;;1.70;;
37309;SDS011;23195;47.744;7.358;2023-11-19T22:51:22;5.80;;;1.63;;
37309;SDS011;23195;47.744;7.358;2023-11-19T22:53:54;7.80;;;1.80;;
37309;SDS011;23195;47.744;7.358;2023-11-19T22:56:21;8.17;;;2.20;;
37309;SDS011;23195;47.744;7.358;2023-11-19T22:58:49;5.47;;;1.60;;
37309;SDS011;23195;47.744;7.358;2023-11-19T23:01:42;5.20;;;1.60;;
37309;SDS011;23195;47.744;7.358;2023-11-19T23:04:31;5.60;;;1.97;;
37309;SDS011;23195;47.744;7.358;2023-11-19T23:07:19;3.60;;;1.70;;
37309;SDS011;23195;47.744;7.358;2023-11-19T23:10:33;5.60;;;1.80;;
37309;SDS011;23195;47.744;7.358;2023-11-19T23:13:32;3.33;;;1.60;;
37309;SDS011;23195;47.744;7.358;2023-11-19T23:16:09;7.00;;;2.00;;
37309;SDS011;23195;47.744;7.358;2023-11-19T23:18:51;6.07;;;1.77;;
37309;SDS011;23195;47.744;7.358;2023-11-19T23:21:25;6.63;;;1.80;;
37309;SDS011;23195;47.744;7.358;2023-11-19T23:24:15;6.57;;;2.90;;
37309;SDS011;23195;47.744;7.358;2023-11-19T23:26:45;6.87;;;2.60;;
37309;SDS011;23195;47.744;7.358;2023-11-19T23:29:37;5.30;;;1.93;;
37309;SDS011;23195;47.744;7.358;2023-11-19T23:32:42;5.43;;;2.07;;
37309;SDS011;23195;47.744;7.358;2023-11-19T23:35:23;8.37;;;2.03;;
37309;SDS011;23195;47.744;7.358;2023-11-19T23:38:04;5.27;;;2.10;;
37309;SDS011;23195;47.744;7.358;2023-11-19T23:40:50;5.67;;;2.40;;
37309;SDS011;23195;47.744;7.358;2023-11-19T23:43:16;5.40;;;2.07;;
37309;SDS011;23195;47.744;7.358;2023-11-19T23:46:02;5.43;;;2.40;;
37309;SDS011;23195;47.744;7.358;2023-11-19T23:48:41;5.23;;;2.43;;
37309;SDS011;23195;47.744;7.358;2023-11-19T23:51:12;3.73;;;1.63;;
37309;SDS011;23195;47.744;7.358;2023-11-19T23:54:25;4.83;;;2.20;;
37309;SDS011;23195;47.744;7.358;2023-11-19T23:57:10;3.70;;;1.77;;
37309;SDS011;23195;47.744;7.358;2023-11-19T23:59:48;5.27;;;1.67;;
